Time;durP1;ratioP1;P1;durP2;ratioP2;P2;SDS_P1;SDS_P2;PMS_P1;PMS_P2;Temp;Humidity;BMP_temperature;BMP_pressure;BME280_temperature;BME280_humidity;BME280_pressure;Samples;Min_cycle;Max_cycle;Signal;HPM_P1;HPM_P2
2023/07/08 00:00:50;;;;;;;1999.90;999.90;;;;;;;17.02;100.00;98476.06;5090799;28;20075;-76
2023/07/08 00:03:16;;;;;;;1999.90;999.90;;;;;;;17.05;100.00;98481.75;5090683;28;20110;-76
2023/07/08 00:05:42;;;;;;;1999.90;999.90;;;;;;;17.12;100.00;98495.09;5089504;28;20127;-76
2023/07/08 00:08:13;;;;;;;1999.90;999.90;;;;;;;17.09;100.00;98481.94;5090474;28;20116;-75
2023/07/08 00:10:38;;;;;;;1999.90;999.90;;;;;;;17.06;100.00;98499.97;5090531;28;20024;-78
2023/07/08 00:13:03;;;;;;;1999.90;999.90;;;;;;;16.96;100.00;98478.19;5090584;28;20078;-76
2023/07/08 00:15:34;;;;;;;1999.90;999.90;;;;;;;17.03;100.00;98489.56;5090508;28;20036;-77
2023/07/08 00:18:00;;;;;;;1999.90;999.90;;;;;;;17.00;100.00;98487.47;5090479;28;20059;-76
2023/07/08 00:20:40;;;;;;;1999.90;999.90;;;;;;;17.21;100.00;98509.72;5090506;28;20047;-77
2023/07/08 00:23:08;;;;;;;1999.90;999.90;;;;;;;17.27;100.00;98504.84;5090848;28;20093;-77
2023/07/08 00:25:33;;;;;;;1999.90;999.90;;;;;;;17.21;100.00;98514.44;5090399;28;20464;-76
2023/07/08 00:27:59;;;;;;;1999.90;999.90;;;;;;;17.26;100.00;98514.31;5090253;28;20028;-77
2023/07/08 00:30:25;;;;;;;1999.90;999.90;;;;;;;17.26;100.00;98519.84;5090400;28;20491;-76
2023/07/08 00:32:54;;;;;;;1999.90;999.90;;;;;;;17.19;100.00;98530.56;5090418;28;20024;-78
2023/07/08 00:35:47;;;;;;;1999.90;999.90;;;;;;;17.08;100.00;98525.34;5090270;28;20404;-77
2023/07/08 00:38:27;;;;;;;1999.90;999.90;;;;;;;17.12;100.00;98531.03;5087533;28;20480;-76
2023/07/08 00:41:03;;;;;;;1999.90;999.90;;;;;;;17.07;100.00;98533.97;5090252;28;20020;-78
2023/07/08 00:43:38;;;;;;;1999.90;999.90;;;;;;;17.09;100.00;98526.16;5090314;28;20024;-76
2023/07/08 00:46:29;;;;;;;1999.90;999.90;;;;;;;16.95;100.00;98537.34;5090310;28;20089;-77
2023/07/08 00:49:06;;;;;;;1999.90;999.90;;;;;;;16.89;100.00;98544.16;5088457;28;20490;-76
2023/07/08 00:51:33;;;;;;;1999.90;999.90;;;;;;;16.81;100.00;98538.63;5090178;28;20073;-78
2023/07/08 00:53:59;;;;;;;1999.90;999.90;;;;;;;16.77;100.00;98532.91;5091731;28;20047;-76
2023/07/08 00:56:29;;;;;;;1999.90;999.90;;;;;;;16.74;100.00;98536.31;5092513;28;20464;-76
2023/07/08 00:59:11;;;;;;;1999.90;999.90;;;;;;;16.67;100.00;98538.75;5093863;28;20051;-76
2023/07/08 01:01:41;;;;;;;1999.90;999.90;;;;;;;16.74;100.00;98552.09;5092473;28;20028;-77
2023/07/08 01:04:15;;;;;;;1999.90;999.90;;;;;;;16.75;100.00;98560.06;5093666;28;20115;-78
2023/07/08 01:06:45;;;;;;;1999.90;999.90;;;;;;;16.78;100.00;98559.44;5092555;28;20403;-77
2023/07/08 01:09:14;;;;;;;1999.90;999.90;;;;;;;16.83;100.00;98553.75;5093775;28;20070;-78
2023/07/08 01:11:40;;;;;;;1999.90;999.90;;;;;;;16.85;100.00;98554.22;5092780;28;20469;-77
2023/07/08 01:14:10;;;;;;;1999.90;999.90;;;;;;;16.91;100.00;98561.25;5093825;28;20085;-76
2023/07/08 01:16:40;;;;;;;1999.90;999.90;;;;;;;16.89;100.00;98555.22;5093792;28;20089;-77
2023/07/08 01:19:13;;;;;;;1999.90;999.90;;;;;;;16.74;100.00;98549.31;5094174;28;20035;-77
2023/07/08 01:22:01;;;;;;;1999.90;999.90;;;;;;;16.71;100.00;98558.25;5093496;28;20062;-77
2023/07/08 01:24:30;;;;;;;1999.90;999.90;;;;;;;16.62;100.00;98552.72;5092446;28;20031;-76
2023/07/08 01:26:57;;;;;;;1999.90;999.90;;;;;;;16.66;100.00;98558.41;5093236;28;20494;-75
2023/07/08 01:29:23;;;;;;;1999.90;999.90;;;;;;;16.65;100.00;98560.34;5092190;28;20012;-76
2023/07/08 01:31:48;;;;;;;1999.90;999.90;;;;;;;16.69;100.00;98561.34;5100644;28;20050;-75
2023/07/08 01:34:17;;;;;;;1999.90;999.90;;;;;;;16.61;100.00;98553.84;5093173;28;20481;-75
2023/07/08 01:36:49;;;;;;;1999.90;999.90;;;;;;;16.58;100.00;98548.94;5092966;28;20468;-75
2023/07/08 01:39:19;;;;;;;1999.90;999.90;;;;;;;16.49;100.00;98556.34;5093107;28;20161;-76
2023/07/08 01:41:45;;;;;;;1999.90;999.90;;;;;;;16.70;100.00;98568.50;5093383;28;20036;-75
2023/07/08 01:44:31;;;;;;;1999.90;999.90;;;;;;;16.66;100.00;98567.53;5093231;28;20020;-74
2023/07/08 01:47:02;;;;;;;1999.90;999.90;;;;;;;16.54;100.00;98553.44;5093130;28;20031;-75
2023/07/08 01:49:29;;;;;;;1999.90;999.90;;;;;;;16.60;100.00;98561.31;5092853;28;20036;-75
2023/07/08 01:51:55;;;;;;;1999.90;999.90;;;;;;;16.48;100.00;98566.59;5093037;28;20058;-75
2023/07/08 01:54:21;;;;;;;1999.90;999.90;;;;;;;16.45;100.00;98561.69;5092056;28;20077;-76
2023/07/08 01:56:46;;;;;;;1999.90;999.90;;;;;;;16.50;100.00;98560.75;5092825;28;20024;-75
2023/07/08 01:59:13;;;;;;;1999.90;999.90;;;;;;;16.54;100.00;98570.00;5092934;28;20090;-77
2023/07/08 02:01:38;;;;;;;1999.90;999.90;;;;;;;16.62;100.00;98560.19;5093040;28;20089;-77
2023/07/08 02:04:03;;;;;;;1999.90;999.90;;;;;;;16.52;100.00;98552.97;5090237;28;20027;-76
2023/07/08 02:06:29;;;;;;;1999.90;999.90;;;;;;;16.48;100.00;98543.69;5084236;28;20028;-76
2023/07/08 02:08:58;;;;;;;1999.90;999.90;;;;;;;16.37;100.00;98534.06;5072235;28;20056;-77
2023/07/08 02:11:23;;;;;;;1999.90;999.90;;;;;;;16.29;100.00;98526.56;5076109;28;20111;-78
2023/07/08 02:13:49;;;;;;;1999.90;999.90;;;;;;;16.28;100.00;98534.03;5075531;28;20052;-76
2023/07/08 02:16:14;;;;;;;1999.90;999.90;;;;;;;16.29;100.00;98529.34;5090922;28;20478;-80
2023/07/08 02:18:39;;;;;;;1999.90;999.90;;;;;;;16.31;100.00;98529.81;5090944;28;20028;-76
2023/07/08 02:21:05;;;;;;;1999.90;999.90;;;;;;;16.35;100.00;98522.53;5091998;28;20519;-77
2023/07/08 02:23:30;;;;;;;1999.90;999.90;;;;;;;16.24;100.00;98521.16;5078185;28;20036;-76
2023/07/08 02:25:56;;;;;;;1999.90;999.90;;;;;;;16.19;100.00;98507.53;5071850;28;20029;-77
2023/07/08 02:28:22;;;;;;;1999.90;999.90;;;;;;;16.16;100.00;98506.22;5071719;28;20021;-76
2023/07/08 02:30:47;;;;;;;1999.90;999.90;;;;;;;16.15;100.00;98504.56;5071512;28;20044;-76
2023/07/08 02:33:17;;;;;;;1999.90;999.90;;;;;;;16.20;100.00;98509.94;5071628;28;20032;-77
2023/07/08 02:35:43;;;;;;;1999.90;999.90;;;;;;;16.20;100.00;98506.38;5071558;28;20392;-75
2023/07/08 02:38:08;;;;;;;1999.90;999.90;;;;;;;16.22;100.00;98502.19;5070375;28;20029;-75
2023/07/08 02:40:34;;;;;;;1999.90;999.90;;;;;;;16.07;100.00;98464.75;5070134;28;20448;-76
2023/07/08 02:42:59;;;;;;;1999.90;999.90;;;;;;;16.21;100.00;98499.72;5072461;28;20028;-75
2023/07/08 02:45:24;;;;;;;1999.90;999.90;;;;;;;16.20;100.00;98506.38;5075504;28;20053;-76
2023/07/08 02:47:51;;;;;;;1999.90;999.90;;;;;;;16.14;100.00;98502.94;5090217;28;20413;-76
2023/07/08 02:50:18;;;;;;;1999.90;999.90;;;;;;;16.22;100.00;98496.66;5071334;28;20028;-75
2023/07/08 02:52:44;;;;;;;1999.90;999.90;;;;;;;16.15;100.00;98484.44;5071066;28;20043;-76
2023/07/08 02:55:09;;;;;;;1999.90;999.90;;;;;;;16.12;100.00;98501.63;5071388;28;20028;-76
2023/07/08 02:57:35;;;;;;;1999.90;999.90;;;;;;;16.12;100.00;98512.69;5071254;28;20029;-75
2023/07/08 03:00:00;;;;;;;1999.90;999.90;;;;;;;16.31;100.00;98521.53;5070673;28;20028;-75
2023/07/08 03:02:26;;;;;;;1999.90;999.90;;;;;;;16.33;100.00;98519.25;5069664;28;20420;-76
2023/07/08 03:04:54;;;;;;;1999.90;999.90;;;;;;;16.37;100.00;98529.34;5071044;28;20033;-75
2023/07/08 03:07:19;;;;;;;1999.90;999.90;;;;;;;16.42;100.00;98531.16;5070976;28;20020;-75
2023/07/08 03:09:46;;;;;;;1999.90;999.90;;;;;;;16.50;100.00;98525.69;5069685;28;20369;-75
2023/07/08 03:12:11;;;;;;;1999.90;999.90;;;;;;;16.53;100.00;98529.75;5070844;28;20020;-76
2023/07/08 03:14:37;;;;;;;1999.90;999.90;;;;;;;16.41;100.00;98518.50;5069296;28;20032;-75
2023/07/08 03:17:03;;;;;;;1999.90;999.90;;;;;;;16.44;100.00;98518.66;5068857;28;20029;-76
2023/07/08 03:19:28;;;;;;;1999.90;999.90;;;;;;;16.48;100.00;98519.63;5070779;28;20435;-76
2023/07/08 03:21:54;;;;;;;1999.90;999.90;;;;;;;16.36;100.00;98524.13;5070846;28;20420;-77
2023/07/08 03:24:19;;;;;;;1999.90;999.90;;;;;;;16.43;100.00;98530.03;5069429;28;20542;-76
2023/07/08 03:26:47;;;;;;;1999.90;999.90;;;;;;;16.18;100.00;98523.25;5070561;28;20049;-76
2023/07/08 03:29:17;;;;;;;1999.90;999.90;;;;;;;16.20;100.00;98526.50;5070208;28;20060;-76
2023/07/08 03:31:44;;;;;;;1999.90;999.90;;;;;;;16.39;100.00;98524.31;5069343;28;20116;-75
2023/07/08 03:34:11;;;;;;;1999.90;999.90;;;;;;;16.58;100.00;98511.09;5069193;28;20388;-76
2023/07/08 03:36:50;;;;;;;1999.90;999.90;;;;;;;16.91;100.00;98503.22;5070582;28;20089;-75
2023/07/08 03:39:21;;;;;;;1999.90;999.90;;;;;;;17.04;100.00;98512.50;5070327;28;20043;-76
2023/07/08 03:41:49;;;;;;;1999.90;999.90;;;;;;;16.97;100.00;98490.88;5076563;28;20048;-76
2023/07/08 03:44:17;;;;;;;1999.90;999.90;;;;;;;17.07;100.00;98489.75;5073109;28;20032;-74
2023/07/08 03:46:49;;;;;;;1999.90;999.90;;;;;;;17.50;100.00;98498.00;5072310;28;20032;-74
2023/07/08 03:49:16;;;;;;;1999.90;999.90;;;;;;;18.20;100.00;98501.13;5070257;28;20129;-75
2023/07/08 03:51:42;;;;;;;1999.90;999.90;;;;;;;18.88;100.00;98499.19;5070662;28;20063;-78
2023/07/08 03:54:13;;;;;;;1999.90;999.90;;;;;;;19.56;100.00;98505.38;5070906;28;20020;-74
2023/07/08 03:56:39;;;;;;;1999.90;999.90;;;;;;;19.98;100.00;98512.47;5070542;28;20024;-74
2023/07/08 03:59:05;;;;;;;1999.90;999.90;;;;;;;19.43;100.00;98510.06;5076343;28;20043;-74
2023/07/08 04:01:31;;;;;;;1999.90;999.90;;;;;;;18.61;100.00;98510.75;5090655;28;20020;-79
2023/07/08 04:03:58;;;;;;;1999.90;999.90;;;;;;;18.02;100.00;98499.56;5090181;28;20023;-75
2023/07/08 04:06:24;;;;;;;1999.90;999.90;;;;;;;17.72;100.00;98500.63;5091526;28;20420;-79
2023/07/08 04:08:50;;;;;;;1999.90;999.90;;;;;;;17.65;100.00;98497.53;5091434;28;20169;-79
2023/07/08 04:11:19;;;;;;;1999.90;999.90;;;;;;;18.03;100.00;98506.72;5091196;28;20516;-79
2023/07/08 04:13:44;;;;;;;1999.90;999.90;;;;;;;18.70;100.00;98508.75;5089370;28;20521;-76
2023/07/08 04:16:24;;;;;;;1999.90;999.90;;;;;;;18.66;100.00;98507.81;5086529;28;20020;-77
2023/07/08 04:18:53;;;;;;;1999.90;999.90;;;;;;;18.47;100.00;98499.88;5071182;28;20028;-80
2023/07/08 04:21:19;;;;;;;1999.90;999.90;;;;;;;18.75;100.00;98503.03;5084831;28;20028;-79
2023/07/08 04:23:44;;;;;;;1999.90;999.90;;;;;;;18.78;100.00;98505.13;5093199;28;20039;-80
2023/07/08 04:26:10;;;;;;;1999.90;999.90;;;;;;;19.18;100.00;98494.41;5090815;28;20023;-77
2023/07/08 04:28:36;;;;;;;1999.90;999.90;;;;;;;19.49;100.00;98500.38;5091235;28;20036;-77
2023/07/08 04:31:01;;;;;;;1999.90;999.90;;;;;;;19.29;100.00;98508.69;5094791;28;20452;-79
2023/07/08 04:33:27;;;;;;;1999.90;999.90;;;;;;;18.83;100.00;98507.69;5082017;28;20023;-79
2023/07/08 04:35:54;;;;;;;1999.90;999.90;;;;;;;18.57;100.00;98510.63;5074582;28;20036;-79
2023/07/08 04:38:22;;;;;;;1999.90;999.90;;;;;;;18.45;100.00;98516.00;5083311;28;20481;-78
2023/07/08 04:40:49;;;;;;;1999.90;999.90;;;;;;;18.45;100.00;98512.44;5093605;28;20031;-78
2023/07/08 04:43:14;;;;;;;1999.90;999.90;;;;;;;18.69;100.00;98510.72;5094259;28;20034;-77
2023/07/08 04:45:43;;;;;;;1999.90;999.90;;;;;;;18.53;100.00;98504.13;5094388;28;20472;-79
2023/07/08 04:48:13;;;;;;;1999.90;999.90;;;;;;;18.24;100.00;98511.53;5093844;28;20083;-77
2023/07/08 04:50:44;;;;;;;1999.90;999.90;;;;;;;18.24;100.00;98509.59;5093800;28;20028;-79
2023/07/08 04:53:11;;;;;;;1999.90;999.90;;;;;;;17.92;100.00;98497.13;5094880;28;20128;-76
2023/07/08 04:55:43;;;;;;;1999.90;999.90;;;;;;;18.08;100.00;98502.97;5093803;28;20101;-79
2023/07/08 04:58:08;;;;;;;1999.90;999.90;;;;;;;18.23;100.00;98504.38;5094661;28;20040;-79
2023/07/08 05:00:34;;;;;;;1999.90;999.90;;;;;;;18.45;100.00;98482.75;5094646;28;20077;-80
2023/07/08 05:02:59;;;;;;;1999.90;999.90;;;;;;;18.63;100.00;98491.84;5094103;28;20028;-79
2023/07/08 05:05:25;;;;;;;1999.90;999.90;;;;;;;18.86;100.00;98495.91;5094178;28;20024;-78
2023/07/08 05:07:51;;;;;;;1999.90;999.90;;;;;;;18.81;100.00;98504.44;5093879;28;20032;-78
2023/07/08 05:10:17;;;;;;;1999.90;999.90;;;;;;;18.75;100.00;98500.25;5093773;28;20077;-80
2023/07/08 05:12:43;;;;;;;1999.90;999.90;;;;;;;18.80;100.00;98511.13;5094123;28;20472;-81
2023/07/08 05:15:09;;;;;;;1999.90;999.90;;;;;;;18.68;100.00;98506.31;5094354;28;20309;-79
2023/07/08 05:17:34;;;;;;;1999.90;999.90;;;;;;;18.87;100.00;98505.06;5093967;28;20024;-78
2023/07/08 05:20:00;;;;;;;1999.90;999.90;;;;;;;18.99;100.00;98481.00;5094530;28;20050;-81
2023/07/08 05:22:27;;;;;;;1999.90;999.90;;;;;;;19.13;100.00;98487.09;5094865;28;20516;-80
2023/07/08 05:24:55;;;;;;;1999.90;999.90;;;;;;;18.93;100.00;98478.75;5094856;28;20028;-78
2023/07/08 05:27:23;;;;;;;1999.90;999.90;;;;;;;18.86;100.00;98492.38;5097006;28;20076;-82
2023/07/08 05:29:50;;;;;;;1999.90;999.90;;;;;;;18.51;100.00;98492.53;5096438;28;20024;-81
2023/07/08 05:32:16;;;;;;;1999.90;999.90;;;;;;;18.60;100.00;98495.28;5097230;28;20028;-80
2023/07/08 05:34:42;;;;;;;1999.90;999.90;;;;;;;18.85;100.00;98504.59;5098146;28;20115;-81
2023/07/08 05:37:07;;;;;;;1999.90;999.90;;;;;;;19.41;100.00;98515.13;5096373;28;20136;-79
2023/07/08 05:39:33;;;;;;;1999.90;999.90;;;;;;;19.70;100.00;98517.00;5097959;28;20035;-81
2023/07/08 05:41:58;;;;;;;1999.90;999.90;;;;;;;19.63;100.00;98502.84;5103253;28;20023;-79
2023/07/08 05:44:24;;;;;;;1999.90;999.90;;;;;;;19.75;100.00;98516.78;5103697;28;20725;-81
2023/07/08 05:46:50;;;;;;;1999.90;999.90;;;;;;;20.00;100.00;98518.50;5101062;28;20376;-82
2023/07/08 05:49:16;;;;;;;1999.90;999.90;;;;;;;20.44;100.00;98507.72;5112332;28;20035;-81
2023/07/08 05:51:44;;;;;;;1999.90;999.90;;;;;;;20.71;100.00;98496.69;5098501;28;20435;-79
2023/07/08 05:54:09;;;;;;;1999.90;999.90;;;;;;;20.71;100.00;98493.09;5104347;28;20021;-79
2023/07/08 05:56:35;;;;;;;1999.90;999.90;;;;;;;20.51;100.00;98494.06;5106268;28;20034;-81
2023/07/08 05:59:00;;;;;;;1999.90;999.90;;;;;;;20.67;100.00;98503.31;5096601;28;20016;-80
2023/07/08 06:01:25;;;;;;;1999.90;999.90;;;;;;;20.15;100.00;98508.66;5109357;28;20107;-80
2023/07/08 06:03:51;;;;;;;1999.90;999.90;;;;;;;19.97;100.00;98499.72;5099962;28;20023;-79
2023/07/08 06:06:16;;;;;;;1999.90;999.90;;;;;;;20.33;100.00;98481.53;5103166;28;20031;-81
2023/07/08 06:08:42;;;;;;;1999.90;999.90;;;;;;;20.41;100.00;98486.97;5107218;28;20073;-79
2023/07/08 06:11:08;;;;;;;1999.90;999.90;;;;;;;20.19;100.00;98485.44;5094476;28;20095;-80
2023/07/08 06:13:33;;;;;;;1999.90;999.90;;;;;;;20.28;100.00;98482.56;5109084;28;20060;-81
2023/07/08 06:15:58;;;;;;;1999.90;999.90;;;;;;;20.69;100.00;98471.22;5100031;28;20027;-79
2023/07/08 06:18:24;;;;;;;1999.90;999.90;;;;;;;20.85;100.00;98474.09;5112951;28;20031;-78
2023/07/08 06:20:55;;;;;;;1999.90;999.90;;;;;;;20.65;100.00;98472.25;5096488;28;20059;-80
2023/07/08 06:23:20;;;;;;;1999.90;999.90;;;;;;;23.04;100.00;98487.69;5104514;28;20023;-78
2023/07/08 06:25:46;;;;;;;1999.90;999.90;;;;;;;22.23;100.00;98498.44;5101509;28;20031;-83
2023/07/08 06:28:11;;;;;;;1999.90;999.90;;;;;;;22.05;100.00;98491.59;5108532;28;21907;-82
2023/07/08 06:30:37;;;;;;;1999.90;999.90;;;;;;;21.54;100.00;98495.28;5097145;28;20024;-81
2023/07/08 06:33:03;;;;;;;1999.90;999.90;;;;;;;21.25;100.00;98480.53;5112526;28;20088;-78
2023/07/08 06:35:28;;;;;;;1999.90;999.90;;;;;;;21.38;100.00;98502.75;5112949;28;20039;-81
2023/07/08 06:37:54;;;;;;;1999.90;999.90;;;;;;;21.33;100.00;98489.91;5112882;28;20036;-79
2023/07/08 06:40:19;;;;;;;1999.90;999.90;;;;;;;21.70;100.00;98487.78;5113320;28;20073;-77
2023/07/08 06:42:45;;;;;;;1999.90;999.90;;;;;;;21.61;100.00;98487.97;5112544;28;20027;-78
2023/07/08 06:45:10;;;;;;;1999.90;999.90;;;;;;;21.83;100.00;98472.66;5113825;28;20020;-80
2023/07/08 06:47:36;;;;;;;1999.90;999.90;;;;;;;21.95;100.00;98472.59;5115578;28;20044;-77
2023/07/08 06:50:02;;;;;;;1999.90;999.90;;;;;;;21.76;100.00;98472.44;5117356;28;20023;-79
2023/07/08 06:52:33;;;;;;;1999.90;999.90;;;;;;;22.36;100.00;98469.31;5114874;28;20036;-80
2023/07/08 06:54:59;;;;;;;1999.90;999.90;;;;;;;22.25;100.00;98472.97;5112933;28;20032;-81
2023/07/08 06:57:24;;;;;;;1999.90;999.90;;;;;;;21.58;100.00;98465.56;5112212;28;20035;-80
2023/07/08 06:59:50;;;;;;;1999.90;999.90;;;;;;;21.50;100.00;98467.34;5102088;28;20516;-78
2023/07/08 07:02:19;;;;;;;1999.90;999.90;;;;;;;21.51;100.00;98465.38;5091747;28;20093;-78
2023/07/08 07:04:45;;;;;;;1999.90;999.90;;;;;;;21.47;100.00;98470.00;5092208;28;20027;-79
2023/07/08 07:07:11;;;;;;;1999.90;999.90;;;;;;;21.61;100.00;98465.69;5091779;28;20030;-82
2023/07/08 07:09:36;;;;;;;1999.90;999.90;;;;;;;22.11;100.00;98475.41;5092831;28;20036;-75
2023/07/08 07:12:02;;;;;;;1999.90;999.90;;;;;;;22.20;100.00;98468.50;5091298;28;20028;-75
2023/07/08 07:14:27;;;;;;;1999.90;999.90;;;;;;;22.66;100.00;98474.44;5091243;28;20024;-74
2023/07/08 07:16:53;;;;;;;1999.90;999.90;;;;;;;22.69;100.00;98465.34;5091479;28;20440;-75
2023/07/08 07:19:19;;;;;;;1999.90;999.90;;;;;;;23.01;100.00;98461.31;5090244;28;20016;-77
2023/07/08 07:21:44;;;;;;;1999.90;999.90;;;;;;;23.37;100.00;98468.47;5092166;28;20365;-72
2023/07/08 07:24:11;;;;;;;1999.90;999.90;;;;;;;23.52;90.60;98462.06;5091953;28;20050;-83
2023/07/08 07:26:37;;;;;;;1999.90;999.90;;;;;;;23.92;82.55;98467.22;5092784;28;20074;-76
2023/07/08 07:29:02;;;;;;;1999.90;999.90;;;;;;;24.20;79.58;98476.16;5091509;28;20056;-80
2023/07/08 07:31:28;;;;;;;1999.90;999.90;;;;;;;24.10;75.46;98468.34;5095141;28;20085;-79
2023/07/08 07:33:53;;;;;;;1999.90;999.90;;;;;;;23.96;74.79;98462.50;5091095;28;20028;-77
2023/07/08 07:36:18;;;;;;;1999.90;999.90;;;;;;;23.89;74.26;98454.81;5091300;28;20111;-78
2023/07/08 07:38:44;;;;;;;1999.90;999.90;;;;;;;23.83;73.98;98458.28;5089471;28;20027;-80
2023/07/08 07:41:10;;;;;;;1999.90;999.90;;;;;;;24.06;73.88;98456.28;5091347;28;20031;-80
2023/07/08 07:43:36;;;;;;;1999.90;999.90;;;;;;;24.12;72.88;98454.84;5090995;28;20036;-77
2023/07/08 07:46:02;;;;;;;1999.90;999.90;;;;;;;24.10;72.92;98445.19;5090937;28;20109;-77
2023/07/08 07:48:28;;;;;;;1999.90;999.90;;;;;;;24.08;72.56;98453.94;5096794;28;20047;-79
2023/07/08 07:50:53;;;;;;;1999.90;999.90;;;;;;;24.16;72.26;98449.31;5091144;28;20036;-76
2023/07/08 07:53:19;;;;;;;1999.90;999.90;;;;;;;24.60;70.43;98453.25;5090945;28;20357;-78
2023/07/08 07:55:44;;;;;;;1999.90;999.90;;;;;;;24.91;67.52;98452.97;5091116;28;20119;-77
2023/07/08 07:58:11;;;;;;;1999.90;999.90;;;;;;;25.16;65.91;98453.31;5091105;28;20024;-77
2023/07/08 08:00:38;;;;;;;1999.90;999.90;;;;;;;25.46;65.77;98445.72;5089613;28;20226;-78
2023/07/08 08:03:03;;;;;;;1999.90;999.90;;;;;;;25.21;65.66;98438.19;5093399;28;20024;-78
2023/07/08 08:05:29;;;;;;;1999.90;999.90;;;;;;;25.36;65.62;98439.97;5096711;28;20024;-81
2023/07/08 08:07:54;;;;;;;1999.90;999.90;;;;;;;25.62;64.41;98434.34;5094384;28;20016;-75
2023/07/08 08:10:19;;;;;;;1999.90;999.90;;;;;;;26.18;63.04;98438.97;5090648;28;20020;-73
2023/07/08 08:12:46;;;;;;;1999.90;999.90;;;;;;;26.25;60.80;98439.81;5090972;28;20067;-73
2023/07/08 08:15:11;;;;;;;1999.90;999.90;;;;;;;25.92;61.73;98440.69;5090768;28;20051;-75
2023/07/08 08:17:36;;;;;;;1999.90;999.90;;;;;;;25.66;62.37;98442.75;5090453;28;20557;-73
2023/07/08 08:20:02;;;;;;;1999.90;999.90;;;;;;;25.84;63.09;98429.78;5090667;28;20032;-74
2023/07/08 08:22:27;;;;;;;1999.90;999.90;;;;;;;25.62;62.26;98419.53;5089559;28;20369;-74
2023/07/08 08:24:53;;;;;;;1999.90;999.90;;;;;;;25.47;62.00;98424.91;5090056;28;20046;-75
2023/07/08 08:27:19;;;;;;;1999.90;999.90;;;;;;;25.42;61.02;98425.25;5088604;28;20012;-74
2023/07/08 08:29:44;;;;;;;1999.90;999.90;;;;;;;25.83;61.16;98428.97;5089831;28;20020;-74
2023/07/08 08:32:10;;;;;;;1999.90;999.90;;;;;;;26.51;58.19;98417.19;5090133;28;20013;-77
2023/07/08 08:34:35;;;;;;;1999.90;999.90;;;;;;;26.29;59.07;98415.41;5089947;28;20161;-75
2023/07/08 08:37:01;;;;;;;1999.90;999.90;;;;;;;26.23;59.55;98416.16;5090159;28;20029;-75
2023/07/08 08:39:29;;;;;;;1999.90;999.90;;;;;;;26.33;58.65;98421.88;5090749;28;20596;-75
2023/07/08 08:41:55;;;;;;;1999.90;999.90;;;;;;;26.67;59.15;98413.28;5091329;28;20484;-76
2023/07/08 08:44:28;;;;;;;1999.90;999.90;;;;;;;27.05;57.64;98418.38;5089983;28;20028;-70
2023/07/08 08:47:01;;;;;;;1999.90;999.90;;;;;;;27.39;58.19;98410.50;5090692;28;20543;-75
2023/07/08 08:49:32;;;;;;;1999.90;999.90;;;;;;;27.10;57.07;98410.38;5091270;28;20040;-80
2023/07/08 08:51:58;;;;;;;1999.90;999.90;;;;;;;26.87;58.40;98412.69;5092377;28;20062;-77
2023/07/08 08:54:26;;;;;;;1999.90;999.90;;;;;;;26.97;57.50;98413.94;5091015;28;20081;-74
2023/07/08 08:57:06;;;;;;;1999.90;999.90;;;;;;;27.02;58.18;98416.38;5090517;28;20026;-74
2023/07/08 08:59:45;;;;;;;1999.90;999.90;;;;;;;27.00;57.08;98427.19;5089791;28;20024;-76
2023/07/08 09:02:26;;;;;;;1999.90;999.90;;;;;;;27.56;55.30;98426.69;5090690;28;20642;-75
2023/07/08 09:04:52;;;;;;;1999.90;999.90;;;;;;;27.66;52.29;98426.69;5090072;28;20040;-75
2023/07/08 09:07:20;;;;;;;1999.90;999.90;;;;;;;27.63;52.27;98426.69;5088815;28;20039;-71
2023/07/08 09:10:00;;;;;;;1999.90;999.90;;;;;;;27.54;50.89;98429.88;5090473;28;20161;-78
2023/07/08 09:12:28;;;;;;;1999.90;999.90;;;;;;;27.80;50.44;98431.56;5089287;28;20472;-70
2023/07/08 09:14:55;;;;;;;1999.90;999.90;;;;;;;27.74;49.97;98432.34;5089736;28;20047;-73
2023/07/08 09:17:27;;;;;;;1999.90;999.90;;;;;;;27.60;49.95;98430.28;5093219;28;20032;-70
2023/07/08 09:20:14;;;;;;;1999.90;999.90;;;;;;;27.29;52.06;98428.94;5093645;28;20053;-72
2023/07/08 09:22:55;;;;;;;1999.90;999.90;;;;;;;27.44;52.96;98421.41;5093549;28;20036;-69
2023/07/08 09:25:35;;;;;;;1999.90;999.90;;;;;;;27.35;53.43;98420.94;5093445;28;20032;-71
2023/07/08 09:28:01;;;;;;;1999.90;999.90;;;;;;;27.95;51.44;98421.16;5092809;28;20024;-71
2023/07/08 09:30:30;;;;;;;1999.90;999.90;;;;;;;27.44;51.89;98425.00;5091854;28;20051;-71
2023/07/08 09:32:56;;;;;;;1999.90;999.90;;;;;;;27.48;51.38;98428.66;5098993;28;20020;-70
2023/07/08 09:35:23;;;;;;;1999.90;999.90;;;;;;;27.29;49.83;98428.94;5094078;28;20043;-72
2023/07/08 09:37:49;;;;;;;1999.90;999.90;;;;;;;27.30;51.63;98429.75;5093213;28;20016;-70
2023/07/08 09:40:28;;;;;;;1999.90;999.90;;;;;;;27.79;55.76;98424.31;5092986;28;20039;-71
2023/07/08 09:43:02;;;;;;;1999.90;999.90;;;;;;;27.33;50.72;98423.34;5091906;28;20024;-71
2023/07/08 09:45:29;;;;;;;1999.90;999.90;;;;;;;27.11;49.83;98420.44;5090572;28;20020;-71
2023/07/08 09:47:56;;;;;;;1999.90;999.90;;;;;;;27.64;51.44;98417.88;5092461;28;20088;-72
2023/07/08 09:50:31;;;;;;;1999.90;999.90;;;;;;;27.62;49.24;98420.28;5096183;28;20028;-71
2023/07/08 09:53:00;;;;;;;1999.90;999.90;;;;;;;27.24;48.57;98420.09;5092929;28;20059;-71
2023/07/08 09:55:27;;;;;;;1999.90;999.90;;;;;;;27.21;51.71;98418.06;5092866;28;20078;-72
2023/07/08 09:57:53;;;;;;;1999.90;999.90;;;;;;;27.63;49.22;98410.63;5092343;28;20013;-73
2023/07/08 10:00:28;;;;;;;1999.90;999.90;;;;;;;28.04;47.37;98418.75;5093126;28;20028;-77
2023/07/08 10:02:58;;;;;;;1999.90;999.90;;;;;;;28.42;47.69;98412.38;5092115;28;20031;-75
2023/07/08 10:05:31;;;;;;;1999.90;999.90;;;;;;;28.33;47.51;98406.34;5101241;28;20024;-79
2023/07/08 10:07:57;;;;;;;1999.90;999.90;;;;;;;27.93;46.64;98415.94;5100445;28;20019;-78
2023/07/08 10:10:29;;;;;;;1999.90;999.90;;;;;;;27.82;46.60;98411.47;5093468;28;20032;-78
2023/07/08 10:12:59;;;;;;;1999.90;999.90;;;;;;;27.85;46.85;98413.53;5083181;28;20353;-83
2023/07/08 10:15:37;;;;;;;1999.90;999.90;;;;;;;27.45;47.46;98406.97;5110777;28;20118;-78
2023/07/08 10:18:03;;;;;;;1999.90;999.90;;;;;;;27.31;47.50;98415.31;5114949;28;20032;-78
2023/07/08 10:20:40;;;;;;;1999.90;999.90;;;;;;;27.30;47.88;98402.44;5102590;28;20031;-70
2023/07/08 10:23:32;;;;;;;1999.90;999.90;;;;;;;28.10;46.52;98412.38;5098969;28;20027;-70
2023/07/08 10:26:17;;;;;;;1999.90;999.90;;;;;;;28.22;45.77;98405.56;5102470;28;20036;-70
2023/07/08 10:28:51;;;;;;;1999.90;999.90;;;;;;;28.42;45.59;98411.56;5095231;28;20380;-71
2023/07/08 10:31:39;;;;;;;1999.90;999.90;;;;;;;28.27;45.89;98405.16;5105487;28;20042;-73
2023/07/08 10:34:34;;;;;;;1999.90;999.90;;;;;;;28.66;44.93;98405.97;5106339;28;20028;-71
2023/07/08 10:37:17;;;;;;;1999.90;999.90;;;;;;;28.35;45.12;98397.53;5083291;28;20023;-71
2023/07/08 10:39:53;;;;;;;1999.90;999.90;;;;;;;28.44;47.86;98398.72;5100820;28;20042;-71
2023/07/08 10:42:48;;;;;;;1999.90;999.90;;;;;;;28.34;45.31;98390.28;5108639;28;20016;-70
2023/07/08 10:45:31;;;;;;;1999.90;999.90;;;;;;;28.12;47.09;98384.66;5080826;28;20055;-68
2023/07/08 10:48:44;;;;;;;1999.90;999.90;;;;;;;28.28;46.44;98389.88;5088555;28;20040;-73
2023/07/08 10:51:28;;;;;;;1999.90;999.90;;;;;;;28.70;46.44;98377.78;5035439;28;20419;-73
2023/07/08 10:54:11;;;;;;;1999.90;999.90;;;;;;;29.31;45.18;98381.28;5099179;28;20024;-72
2023/07/08 10:56:47;;;;;;;1999.90;999.90;;;;;;;29.81;45.32;98379.81;5108061;28;20028;-72